Time,TemperatureF,DewpointF,PressureIn,WindDirection,WindDirectionDegrees,WindSpeedMPH,WindSpeedGustMPH,Humidity,HourlyPrecipIn,Conditions,Clouds,dailyrainin,SoftwareType,DateUTC
2013-02-25 00:00:00,26.9,24.6,30.08,North,349,1.0,1.0,91,0.00,,,0.00,Wunderground v.1.15,2013-02-25 07:00:00,
2013-02-25 00:10:00,26.9,24.4,30.08,NNE,18,0.0,0.0,90,0.00,,,0.00,Wunderground v.1.15,2013-02-25 07:10:00,
2013-02-25 00:15:00,26.9,24.4,30.09,NNE,18,0.0,0.0,90,0.00,,,0.00,Wunderground v.1.15,2013-02-25 07:15:00,
2013-02-25 00:25:00,26.9,24.4,30.09,NNE,18,0.0,0.0,90,0.00,,,0.00,Wunderground v.1.15,2013-02-25 07:25:00,
2013-02-25 00:35:00,27.1,24.6,30.10,NNE,18,0.0,0.0,90,0.00,,,0.00,Wunderground v.1.15,2013-02-25 07:35:00,
2013-02-25 00:45:00,27.5,24.4,30.10,WNW,287,0.0,0.0,88,0.00,,,0.00,Wunderground v.1.15,2013-02-25 07:45:00,
2013-02-25 00:50:00,27.6,24.5,30.11,WNW,288,0.0,0.0,88,0.00,,,0.00,Wunderground v.1.15,2013-02-25 07:50:00,
2013-02-25 01:00:00,27.8,24.2,30.11,WSW,257,0.0,0.0,86,0.00,,,0.00,Wunderground v.1.15,2013-02-25 08:00:00,
2013-02-25 01:10:00,28.2,23.7,30.11,West,266,0.0,0.0,83,0.00,,,0.00,Wunderground v.1.15,2013-02-25 08:10:00,
2013-02-25 01:20:00,28.2,24.0,30.12,West,274,0.0,0.0,84,0.00,,,0.00,Wunderground v.1.15,2013-02-25 08:20:00,
2013-02-25 01:30:00,28.1,23.6,30.13,NNE,14,0.0,0.0,83,0.00,,,0.00,Wunderground v.1.15,2013-02-25 08:30:00,
2013-02-25 01:35:00,28.0,22.9,30.13,NW,321,0.0,0.0,81,0.00,,,0.00,Wunderground v.1.15,2013-02-25 08:35:00,
2013-02-25 01:45:00,28.2,21.9,30.13,NW,324,1.0,1.0,77,0.00,,,0.00,Wunderground v.1.15,2013-02-25 08:45:00,
2013-02-25 01:55:00,28.1,22.4,30.13,North,349,0.0,1.0,79,0.00,,,0.00,Wunderground v.1.15,2013-02-25 08:55:00,
2013-02-25 02:00:00,28.1,22.4,30.14,North,349,0.0,0.0,79,0.00,,,0.00,Wunderground v.1.15,2013-02-25 09:00:00,
2013-02-25 02:10:00,28.3,21.1,30.14,NNE,23,2.0,2.0,74,0.00,,,0.00,Wunderground v.1.15,2013-02-25 09:10:00,
2013-02-25 02:15:00,28.5,20.6,30.15,NNE,15,3.0,3.0,72,0.00,,,0.00,Wunderground v.1.15,2013-02-25 09:15:00,
2013-02-25 02:25:00,28.5,20.0,30.15,North,8,2.0,3.0,70,0.00,,,0.00,Wunderground v.1.15,2013-02-25 09:25:00,
2013-02-25 02:30:00,28.5,19.6,30.15,NNW,345,2.0,2.0,69,0.00,,,0.00,Wunderground v.1.15,2013-02-25 09:30:00,
2013-02-25 02:40:00,28.5,18.9,30.16,NNW,338,2.0,2.0,67,0.00,,,0.00,Wunderground v.1.15,2013-02-25 09:40:00,
2013-02-25 02:50:00,28.5,19.3,30.17,NNE,20,3.0,4.0,68,0.00,,,0.00,Wunderground v.1.15,2013-02-25 09:50:00,
2013-02-25 03:00:00,28.5,18.6,30.17,NNW,340,4.0,4.0,66,0.00,,,0.00,Wunderground v.1.15,2013-02-25 10:00:00,
2013-02-25 03:10:00,28.5,18.6,30.17,NNE,12,3.0,3.0,66,0.00,,,0.00,Wunderground v.1.15,2013-02-25 10:10:00,
2013-02-25 03:15:00,28.5,18.2,30.17,NNW,337,3.0,8.0,65,0.00,,,0.00,Wunderground v.1.15,2013-02-25 10:15:00,
2013-02-25 03:25:00,28.5,17.1,30.17,NNW,338,4.0,5.0,62,0.00,,,0.00,Wunderground v.1.15,2013-02-25 10:25:00,
2013-02-25 03:35:00,28.3,17.7,30.17,North,352,2.0,4.0,64,0.00,,,0.00,Wunderground v.1.15,2013-02-25 10:35:00,
2013-02-25 03:40:00,28.1,17.5,30.17,NE,39,1.0,1.0,64,0.00,,,0.00,Wunderground v.1.15,2013-02-25 10:40:00,
2013-02-25 03:50:00,27.7,18.2,30.17,North,11,0.0,2.0,67,0.00,,,0.00,Wunderground v.1.15,2013-02-25 10:50:00,
2013-02-25 03:55:00,27.5,18.0,30.17,NW,326,1.0,2.0,67,0.00,,,0.00,Wunderground v.1.15,2013-02-25 10:55:00,
2013-02-25 04:00:00,27.5,17.6,30.18,North,349,2.0,2.0,66,0.00,,,0.00,Wunderground v.1.15,2013-02-25 11:00:00,
2013-02-25 04:10:00,27.4,17.2,30.18,NNE,13,2.0,2.0,65,0.00,,,0.00,Wunderground v.1.15,2013-02-25 11:10:00,
2013-02-25 04:15:00,27.2,17.0,30.18,NNE,14,1.0,2.0,65,0.00,,,0.00,Wunderground v.1.15,2013-02-25 11:15:00,
2013-02-25 04:25:00,26.8,16.6,30.19,North,5,0.0,0.0,65,0.00,,,0.00,Wunderground v.1.15,2013-02-25 11:25:00,
2013-02-25 04:30:00,26.7,17.6,30.19,NNW,338,0.0,0.0,68,0.00,,,0.00,Wunderground v.1.15,2013-02-25 11:30:00,
2013-02-25 04:40:00,26.2,16.7,30.20,NNW,336,1.0,1.0,67,0.00,,,0.00,Wunderground v.1.15,2013-02-25 11:40:00,
2013-02-25 04:50:00,26.0,16.5,30.20,NNW,336,1.0,4.0,67,0.00,,,0.00,Wunderground v.1.15,2013-02-25 11:50:00,
2013-02-25 04:55:00,26.0,16.2,30.20,NW,325,2.0,4.0,66,0.00,,,0.00,Wunderground v.1.15,2013-02-25 11:55:00,
2013-02-25 05:00:00,25.9,16.1,30.21,NNW,342,2.0,2.0,66,0.00,,,0.00,Wunderground v.1.15,2013-02-25 12:00:00,
2013-02-25 05:10:00,25.8,16.0,30.21,NNW,332,2.0,3.0,66,0.00,,,0.00,Wunderground v.1.15,2013-02-25 12:10:00,
2013-02-25 05:15:00,25.7,15.9,30.22,NNW,329,2.0,3.0,66,0.00,,,0.00,Wunderground v.1.15,2013-02-25 12:15:00,
2013-02-25 05:20:00,25.5,15.7,30.22,NW,311,1.0,1.0,66,0.00,,,0.00,Wunderground v.1.15,2013-02-25 12:20:00,
2013-02-25 05:30:00,24.9,15.8,30.22,ESE,120,0.0,1.0,68,0.00,,,0.00,Wunderground v.1.15,2013-02-25 12:30:00,
2013-02-25 05:35:00,24.7,16.0,30.23,SE,132,0.0,1.0,69,0.00,,,0.00,Wunderground v.1.15,2013-02-25 12:35:00,
2013-02-25 05:45:00,23.9,15.9,30.23,North,354,0.0,1.0,71,0.00,,,0.00,Wunderground v.1.15,2013-02-25 12:45:00,
2013-02-25 05:50:00,23.7,16.3,30.23,North,6,1.0,1.0,73,0.00,,,0.00,Wunderground v.1.15,2013-02-25 12:50:00,
2013-02-25 06:00:00,24.0,15.6,30.24,North,355,2.0,4.0,70,0.00,,,0.00,Wunderground v.1.15,2013-02-25 13:00:00,
2013-02-25 06:10:00,24.3,15.3,30.24,NNE,18,3.0,3.0,68,0.00,,,0.00,Wunderground v.1.15,2013-02-25 13:10:00,
2013-02-25 06:20:00,24.2,15.2,30.25,NE,40,1.0,2.0,68,0.00,,,0.00,Wunderground v.1.15,2013-02-25 13:20:00,
2013-02-25 06:30:00,24.2,14.8,30.25,NE,35,1.0,1.0,67,0.00,,,0.00,Wunderground v.1.15,2013-02-25 13:30:00,
2013-02-25 06:40:00,24.2,14.8,30.26,NNE,27,2.0,4.0,67,0.00,,,0.00,Wunderground v.1.15,2013-02-25 13:40:00,
2013-02-25 06:50:00,24.4,14.7,30.26,NE,36,4.0,4.0,66,0.00,,,0.00,Wunderground v.1.15,2013-02-25 13:50:00,
2013-02-25 06:55:00,24.4,14.7,30.27,NNE,12,4.0,4.0,66,0.00,,,0.00,Wunderground v.1.15,2013-02-25 13:55:00,
2013-02-25 07:00:00,24.3,14.6,30.27,ENE,65,2.0,2.0,66,0.00,,,0.00,Wunderground v.1.15,2013-02-25 14:00:00,
2013-02-25 07:05:00,24.2,14.5,30.27,NNE,32,2.0,2.0,66,0.00,,,0.00,Wunderground v.1.15,2013-02-25 14:05:00,
2013-02-25 07:15:00,24.2,14.5,30.28,NNE,17,0.0,3.0,66,0.00,,,0.00,Wunderground v.1.15,2013-02-25 14:15:00,
2013-02-25 07:25:00,24.4,14.7,30.28,NNE,23,1.0,2.0,66,0.00,,,0.00,Wunderground v.1.15,2013-02-25 14:25:00,
2013-02-25 07:35:00,24.7,14.9,30.29,NNE,27,1.0,3.0,66,0.00,,,0.00,Wunderground v.1.15,2013-02-25 14:35:00,
2013-02-25 07:40:00,24.8,14.7,30.29,NNE,21,2.0,2.0,65,0.00,,,0.00,Wunderground v.1.15,2013-02-25 14:40:00,
2013-02-25 07:50:00,25.5,15.4,30.30,North,349,0.0,2.0,65,0.00,,,0.00,Wunderground v.1.15,2013-02-25 14:50:00,
2013-02-25 07:55:00,25.9,15.0,30.30,NNE,20,2.0,2.0,63,0.00,,,0.00,Wunderground v.1.15,2013-02-25 14:55:00,
2013-02-25 08:00:00,26.2,14.9,30.31,NE,37,3.0,5.0,62,0.00,,,0.00,Wunderground v.1.15,2013-02-25 15:00:00,
2013-02-25 08:10:00,26.8,14.8,30.31,NNE,18,5.0,5.0,60,0.00,,,0.00,Wunderground v.1.15,2013-02-25 15:10:00,
2013-02-25 08:15:00,27.0,14.6,30.31,NNE,15,5.0,5.0,59,0.00,,,0.00,Wunderground v.1.15,2013-02-25 15:15:00,
2013-02-25 08:25:00,27.8,14.9,30.31,NNW,347,3.0,9.0,58,0.00,,,0.00,Wunderground v.1.15,2013-02-25 15:25:00,
2013-02-25 08:30:00,27.8,15.3,30.31,NE,50,4.0,4.0,59,0.00,,,0.00,Wunderground v.1.15,2013-02-25 15:30:00,
2013-02-25 08:40:00,28.0,14.7,30.31,NNW,342,4.0,4.0,57,0.00,,,0.00,Wunderground v.1.15,2013-02-25 15:40:00,
2013-02-25 08:50:00,28.3,15.0,30.32,NNW,345,3.0,3.0,57,0.00,,,0.00,Wunderground v.1.15,2013-02-25 15:50:00,
2013-02-25 08:55:00,28.7,15.0,30.32,North,359,3.0,3.0,56,0.00,,,0.00,Wunderground v.1.15,2013-02-25 15:55:00,
2013-02-25 09:00:00,29.0,15.7,30.32,NE,41,3.0,3.0,57,0.00,,,0.00,Wunderground v.1.15,2013-02-25 16:00:00,
2013-02-25 09:10:00,29.4,15.2,30.33,North,5,4.0,8.0,55,0.00,,,0.00,Wunderground v.1.15,2013-02-25 16:10:00,
2013-02-25 09:15:00,29.5,15.3,30.33,NNE,18,3.0,8.0,55,0.00,,,0.00,Wunderground v.1.15,2013-02-25 16:15:00,
2013-02-25 09:25:00,30.2,15.5,30.33,North,9,3.0,3.0,54,0.00,,,0.00,Wunderground v.1.15,2013-02-25 16:25:00,
2013-02-25 09:35:00,30.4,15.3,30.32,NNE,29,2.0,3.0,53,0.00,,,0.00,Wunderground v.1.15,2013-02-25 16:35:00,
2013-02-25 09:40:00,30.5,15.4,30.32,NNE,21,2.0,3.0,53,0.00,,,0.00,Wunderground v.1.15,2013-02-25 16:40:00,
2013-02-25 09:45:00,30.7,15.6,30.32,SE,129,3.0,3.0,53,0.00,,,0.00,Wunderground v.1.15,2013-02-25 16:45:00,
2013-02-25 09:50:00,31.1,15.5,30.32,NNE,29,2.0,2.0,52,0.00,,,0.00,Wunderground v.1.15,2013-02-25 16:50:00,
2013-02-25 10:00:00,31.0,15.0,30.32,NNW,348,4.0,4.0,51,0.00,,,0.00,Wunderground v.1.15,2013-02-25 17:00:00,
2013-02-25 10:10:00,31.6,15.5,30.32,WNW,295,2.0,2.0,51,0.00,,,0.00,Wunderground v.1.15,2013-02-25 17:10:00,
2013-02-25 10:20:00,32.0,15.4,30.32,ENE,63,3.0,3.0,50,0.00,,,0.00,Wunderground v.1.15,2013-02-25 17:20:00,
2013-02-25 10:30:00,32.5,15.4,30.33,NNE,19,2.0,3.0,49,0.00,,,0.00,Wunderground v.1.15,2013-02-25 17:30:00,
2013-02-25 10:35:00,32.6,15.5,30.33,North,358,3.0,3.0,49,0.00,,,0.00,Wunderground v.1.15,2013-02-25 17:35:00,
2013-02-25 10:55:00,34.3,16.1,30.32,North,354,3.0,3.0,47,0.00,,,0.00,Wunderground v.1.15,2013-02-25 17:55:00,
2013-02-25 11:00:00,34.8,16.1,30.32,North,11,4.0,10.0,46,0.00,,,0.00,Wunderground v.1.15,2013-02-25 18:00:00,
2013-02-25 11:10:00,35.2,15.4,30.32,NNW,328,4.0,4.0,44,0.00,,,0.01,Wunderground v.1.15,2013-02-25 18:10:00,
2013-02-25 11:15:00,35.7,15.4,30.31,WSW,245,2.0,4.0,43,0.00,,,0.01,Wunderground v.1.15,2013-02-25 18:15:00,
2013-02-25 11:25:00,37.1,16.6,30.31,SSE,159,1.0,2.0,43,0.00,,,0.01,Wunderground v.1.15,2013-02-25 18:25:00,
2013-02-25 11:30:00,38.1,18.6,30.30,NNE,22,1.0,1.0,45,0.00,,,0.01,Wunderground v.1.15,2013-02-25 18:30:00,
2013-02-25 11:40:00,38.2,16.0,30.29,NNE,19,1.0,1.0,40,0.00,,,0.01,Wunderground v.1.15,2013-02-25 18:40:00,
2013-02-25 11:50:00,37.9,15.7,30.29,West,263,2.0,2.0,40,0.00,,,0.01,Wunderground v.1.15,2013-02-25 18:50:00,
2013-02-25 11:55:00,38.4,16.1,30.28,NNW,348,2.0,4.0,40,0.00,,,0.01,Wunderground v.1.15,2013-02-25 18:55:00,
2013-02-25 12:00:00,38.4,15.6,30.28,NNE,14,2.0,7.0,39,0.00,,,0.01,Wunderground v.1.15,2013-02-25 19:00:00,
2013-02-25 12:10:00,38.5,15.7,30.26,NNE,30,3.0,4.0,39,0.00,,,0.01,Wunderground v.1.15,2013-02-25 19:10:00,
2013-02-25 12:15:00,39.6,16.0,30.26,NNW,333,2.0,4.0,38,0.00,,,0.01,Wunderground v.1.15,2013-02-25 19:15:00,
2013-02-25 12:20:00,40.5,13.6,30.26,WNW,294,2.0,6.0,33,0.00,,,0.01,Wunderground v.1.15,2013-02-25 19:20:00,
2013-02-25 12:30:00,40.4,11.4,30.25,NNE,13,3.0,5.0,30,0.00,,,0.01,Wunderground v.1.15,2013-02-25 19:30:00,
2013-02-25 12:40:00,42.2,9.7,30.24,NW,304,5.0,6.0,26,0.00,,,0.01,Wunderground v.1.15,2013-02-25 19:40:00,
2013-02-25 12:45:00,42.3,9.8,30.24,NNE,15,6.0,8.0,26,0.00,,,0.01,Wunderground v.1.15,2013-02-25 19:45:00,
2013-02-25 12:55:00,42.7,8.4,30.23,NNW,339,7.0,7.0,24,0.00,,,0.01,Wunderground v.1.15,2013-02-25 19:55:00,
2013-02-25 13:00:00,43.1,7.7,30.22,NW,305,7.0,7.0,23,0.00,,,0.01,Wunderground v.1.15,2013-02-25 20:00:00,
2013-02-25 13:10:00,44.1,9.5,30.22,North,352,6.0,9.0,24,0.00,,,0.01,Wunderground v.1.15,2013-02-25 20:10:00,
2013-02-25 13:15:00,44.1,8.6,30.21,NW,326,6.0,10.0,23,0.00,,,0.01,Wunderground v.1.15,2013-02-25 20:15:00,
2013-02-25 13:25:00,44.7,9.1,30.21,NNE,12,7.0,9.0,23,0.00,,,0.01,Wunderground v.1.15,2013-02-25 20:25:00,
2013-02-25 13:35:00,44.3,7.8,30.20,WNW,286,6.0,10.0,22,0.00,,,0.01,Wunderground v.1.15,2013-02-25 20:35:00,
2013-02-25 13:40:00,44.9,7.3,30.20,NNW,344,6.0,7.0,21,0.00,,,0.01,Wunderground v.1.15,2013-02-25 20:40:00,
2013-02-25 13:45:00,45.5,7.8,30.20,WNW,287,6.0,10.0,21,0.00,,,0.01,Wunderground v.1.15,2013-02-25 20:45:00,
2013-02-25 13:55:00,45.2,7.5,30.19,NNW,328,6.0,6.0,21,0.00,,,0.01,Wunderground v.1.15,2013-02-25 20:55:00,
2013-02-25 14:00:00,45.6,7.8,30.19,SW,236,6.0,6.0,21,0.00,,,0.01,Wunderground v.1.15,2013-02-25 21:00:00,
2013-02-25 14:10:00,46.1,6.0,30.19,NW,311,6.0,11.0,19,0.00,,,0.01,Wunderground v.1.15,2013-02-25 21:10:00,
2013-02-25 14:15:00,46.6,6.5,30.19,NW,319,7.0,11.0,19,0.00,,,0.01,Wunderground v.1.15,2013-02-25 21:15:00,
2013-02-25 14:25:00,46.7,6.5,30.18,West,280,6.0,6.0,19,0.00,,,0.01,Wunderground v.1.15,2013-02-25 21:25:00,
2013-02-25 14:35:00,46.8,4.2,30.18,NNW,333,7.0,10.0,17,0.00,,,0.01,Wunderground v.1.15,2013-02-25 21:35:00,
2013-02-25 14:45:00,46.7,5.4,30.18,West,273,8.0,11.0,18,0.00,,,0.01,Wunderground v.1.15,2013-02-25 21:45:00,
2013-02-25 14:55:00,46.9,4.3,30.18,NW,306,8.0,12.0,17,0.00,,,0.01,Wunderground v.1.15,2013-02-25 21:55:00,
2013-02-25 15:00:00,46.9,5.5,30.18,NW,315,8.0,10.0,18,0.00,,,0.01,Wunderground v.1.15,2013-02-25 22:00:00,
2013-02-25 15:10:00,46.7,4.1,30.17,WNW,285,9.0,9.0,17,0.00,,,0.01,Wunderground v.1.15,2013-02-25 22:10:00,
2013-02-25 15:15:00,47.3,4.6,30.17,NNW,330,7.0,15.0,17,0.00,,,0.01,Wunderground v.1.15,2013-02-25 22:15:00,
2013-02-25 15:20:00,47.2,5.8,30.17,NW,316,7.0,7.0,18,0.00,,,0.01,Wunderground v.1.15,2013-02-25 22:20:00,
2013-02-25 15:25:00,47.3,4.6,30.17,NE,40,7.0,8.0,17,0.00,,,0.01,Wunderground v.1.15,2013-02-25 22:25:00,
2013-02-25 15:35:00,47.6,6.1,30.17,NW,323,7.0,10.0,18,0.00,,,0.01,Wunderground v.1.15,2013-02-25 22:35:00,
2013-02-25 15:45:00,47.9,5.1,30.16,WNW,284,6.0,6.0,17,0.00,,,0.01,Wunderground v.1.15,2013-02-25 22:45:00,
2013-02-25 15:55:00,47.2,1.8,30.16,North,354,9.0,12.0,15,0.00,,,0.01,Wunderground v.1.15,2013-02-25 22:55:00,
2013-02-25 16:00:00,47.5,4.8,30.16,NNE,20,7.0,7.0,17,0.00,,,0.01,Wunderground v.1.15,2013-02-25 23:00:00,
2013-02-25 16:10:00,47.5,3.4,30.16,North,8,6.0,11.0,16,0.00,,,0.01,Wunderground v.1.15,2013-02-25 23:10:00,
2013-02-25 16:15:00,47.5,3.4,30.16,WNW,300,7.0,11.0,16,0.00,,,0.01,Wunderground v.1.15,2013-02-25 23:15:00,
2013-02-25 16:25:00,48.1,5.3,30.16,West,272,5.0,7.0,17,0.00,,,0.01,Wunderground v.1.15,2013-02-25 23:25:00,
2013-02-25 16:35:00,48.3,5.4,30.16,NNW,335,4.0,5.0,17,0.00,,,0.01,Wunderground v.1.15,2013-02-25 23:35:00,
2013-02-25 16:40:00,48.0,5.2,30.16,WNW,297,4.0,6.0,17,0.00,,,0.01,Wunderground v.1.15,2013-02-25 23:40:00,
2013-02-25 16:50:00,47.6,4.9,30.15,West,276,6.0,6.0,17,0.00,,,0.01,Wunderground v.1.15,2013-02-25 23:50:00,
2013-02-25 16:55:00,47.6,4.9,30.15,West,278,5.0,10.0,17,0.00,,,0.01,Wunderground v.1.15,2013-02-25 23:55:00,
2013-02-25 17:00:00,47.6,4.9,30.15,NNW,344,6.0,7.0,17,0.00,,,0.01,Wunderground v.1.15,2013-02-26 00:00:00,
2013-02-25 17:10:00,47.3,4.6,30.15,North,360,6.0,6.0,17,0.00,,,0.01,Wunderground v.1.15,2013-02-26 00:10:00,
2013-02-25 17:15:00,47.1,4.4,30.15,West,281,7.0,11.0,17,0.00,,,0.01,Wunderground v.1.15,2013-02-26 00:15:00,
2013-02-25 17:20:00,47.1,4.4,30.15,NNW,344,6.0,6.0,17,0.00,,,0.01,Wunderground v.1.15,2013-02-26 00:20:00,
2013-02-25 17:30:00,47.0,3.0,30.16,NW,307,5.0,7.0,16,0.00,,,0.01,Wunderground v.1.15,2013-02-26 00:30:00,
2013-02-25 17:40:00,46.7,2.8,30.16,West,277,5.0,5.0,16,0.00,,,0.01,Wunderground v.1.15,2013-02-26 00:40:00,
2013-02-25 17:45:00,46.7,1.4,30.16,NW,326,5.0,8.0,15,0.00,,,0.01,Wunderground v.1.15,2013-02-26 00:45:00,
2013-02-25 17:50:00,46.5,1.2,30.16,NW,312,6.0,7.0,15,0.00,,,0.01,Wunderground v.1.15,2013-02-26 00:50:00,
2013-02-25 17:55:00,46.1,0.9,30.16,NNW,328,6.0,7.0,15,0.00,,,0.01,Wunderground v.1.15,2013-02-26 00:55:00,
2013-02-25 18:00:00,45.7,0.6,30.16,NW,308,6.0,7.0,15,0.00,,,0.01,Wunderground v.1.15,2013-02-26 01:00:00,
2013-02-25 18:10:00,45.1,1.5,30.16,NW,311,5.0,5.0,16,0.00,,,0.01,Wunderground v.1.15,2013-02-26 01:10:00,
2013-02-25 18:20:00,44.6,1.1,30.16,NW,308,5.0,5.0,16,0.00,,,0.01,Wunderground v.1.15,2013-02-26 01:20:00,
2013-02-25 18:25:00,44.4,2.2,30.16,NNW,340,6.0,6.0,17,0.00,,,0.01,Wunderground v.1.15,2013-02-26 01:25:00,
2013-02-25 18:35:00,43.8,1.7,30.16,NW,312,4.0,6.0,17,0.00,,,0.01,Wunderground v.1.15,2013-02-26 01:35:00,
2013-02-25 18:40:00,43.6,2.8,30.16,NNW,340,3.0,6.0,18,0.00,,,0.01,Wunderground v.1.15,2013-02-26 01:40:00,
2013-02-25 18:45:00,43.4,2.6,30.16,NNE,16,3.0,6.0,18,0.00,,,0.01,Wunderground v.1.15,2013-02-26 01:45:00,
2013-02-25 18:55:00,42.9,3.4,30.16,North,359,5.0,7.0,19,0.00,,,0.01,Wunderground v.1.15,2013-02-26 01:55:00,
2013-02-25 19:00:00,42.5,4.2,30.16,NNE,17,4.0,4.0,20,0.00,,,0.01,Wunderground v.1.15,2013-02-26 02:00:00,
2013-02-25 19:10:00,41.6,5.5,30.16,NNE,29,2.0,2.0,22,0.00,,,0.01,Wunderground v.1.15,2013-02-26 02:10:00,
2013-02-25 19:20:00,41.0,6.0,30.17,North,356,1.0,3.0,23,0.00,,,0.01,Wunderground v.1.15,2013-02-26 02:20:00,
2013-02-25 19:30:00,40.9,5.9,30.17,NNE,22,4.0,4.0,23,0.00,,,0.01,Wunderground v.1.15,2013-02-26 02:30:00,
2013-02-25 19:40:00,40.6,5.6,30.17,North,352,3.0,3.0,23,0.00,,,0.01,Wunderground v.1.15,2013-02-26 02:40:00,
2013-02-25 19:45:00,40.3,6.3,30.17,NNE,26,2.0,3.0,24,0.00,,,0.01,Wunderground v.1.15,2013-02-26 02:45:00,
2013-02-25 19:50:00,40.1,6.1,30.17,NNE,27,2.0,2.0,24,0.00,,,0.01,Wunderground v.1.15,2013-02-26 02:50:00,
2013-02-25 20:00:00,39.7,6.7,30.16,NNE,30,3.0,3.0,25,0.00,,,0.01,Wunderground v.1.15,2013-02-26 03:00:00,
2013-02-25 20:10:00,39.5,7.4,30.16,NE,45,4.0,4.0,26,0.00,,,0.01,Wunderground v.1.15,2013-02-26 03:10:00,
2013-02-25 20:20:00,39.2,8.0,30.16,North,354,3.0,3.0,27,0.00,,,0.01,Wunderground v.1.15,2013-02-26 03:20:00,
2013-02-25 20:30:00,39.0,7.8,30.17,NNE,25,3.0,5.0,27,0.00,,,0.01,Wunderground v.1.15,2013-02-26 03:30:00,
2013-02-25 20:35:00,38.9,7.7,30.17,North,352,2.0,5.0,27,0.00,,,0.01,Wunderground v.1.15,2013-02-26 03:35:00,
2013-02-25 20:45:00,38.7,7.5,30.17,NNE,26,2.0,5.0,27,0.00,,,0.01,Wunderground v.1.15,2013-02-26 03:45:00,
2013-02-25 20:50:00,38.6,7.4,30.17,NNW,330,3.0,3.0,27,0.00,,,0.01,Wunderground v.1.15,2013-02-26 03:50:00,
2013-02-25 20:55:00,38.4,7.3,30.17,NW,319,3.0,3.0,27,0.00,,,0.01,Wunderground v.1.15,2013-02-26 03:55:00,
2013-02-25 21:00:00,38.2,7.1,30.17,NNE,12,3.0,5.0,27,0.00,,,0.01,Wunderground v.1.15,2013-02-26 04:00:00,
2013-02-25 21:10:00,38.1,7.0,30.18,NW,309,2.0,2.0,27,0.00,,,0.01,Wunderground v.1.15,2013-02-26 04:10:00,
2013-02-25 21:15:00,37.8,7.6,30.19,WNW,293,1.0,2.0,28,0.00,,,0.01,Wunderground v.1.15,2013-02-26 04:15:00,
2013-02-25 21:25:00,37.1,6.9,30.19,NNW,329,0.0,0.0,28,0.00,,,0.01,Wunderground v.1.15,2013-02-26 04:25:00,
2013-02-25 21:30:00,36.7,7.4,30.19,NNW,329,0.0,0.0,29,0.00,,,0.01,Wunderground v.1.15,2013-02-26 04:30:00,
2013-02-25 21:40:00,36.0,7.5,30.19,North,1,0.0,0.0,30,0.00,,,0.01,Wunderground v.1.15,2013-02-26 04:40:00,
2013-02-25 21:50:00,36.1,6.9,30.18,North,351,0.0,0.0,29,0.00,,,0.01,Wunderground v.1.15,2013-02-26 04:50:00,
2013-02-25 22:00:00,35.9,6.7,30.18,NNE,16,0.0,0.0,29,0.00,,,0.01,Wunderground v.1.15,2013-02-26 05:00:00,
2013-02-25 22:10:00,35.6,7.2,30.18,North,354,0.0,0.0,30,0.00,,,0.01,Wunderground v.1.15,2013-02-26 05:10:00,
2013-02-25 22:15:00,35.3,6.9,30.18,North,353,0.0,0.0,30,0.00,,,0.01,Wunderground v.1.15,2013-02-26 05:15:00,
2013-02-25 22:20:00,35.0,7.4,30.18,North,352,0.0,0.0,31,0.00,,,0.01,Wunderground v.1.15,2013-02-26 05:20:00,
2013-02-25 22:30:00,34.0,7.9,30.18,North,354,0.0,0.0,33,0.00,,,0.01,Wunderground v.1.15,2013-02-26 05:30:00,
2013-02-25 22:40:00,32.8,8.7,30.18,ESE,120,0.0,0.0,36,0.00,,,0.01,Wunderground v.1.15,2013-02-26 05:40:00,
2013-02-25 22:50:00,32.0,8.0,30.17,ESE,120,0.0,0.0,36,0.00,,,0.01,Wunderground v.1.15,2013-02-26 05:50:00,
2013-02-25 22:55:00,31.6,8.9,30.17,ESE,120,0.0,0.0,38,0.00,,,0.01,Wunderground v.1.15,2013-02-26 05:55:00,
2013-02-25 23:00:00,31.0,8.3,30.17,ESE,120,0.0,0.0,38,0.00,,,0.01,Wunderground v.1.15,2013-02-26 06:00:00,
2013-02-25 23:10:00,30.5,8.4,30.17,ESE,120,0.0,0.0,39,0.00,,,0.01,Wunderground v.1.15,2013-02-26 06:10:00,
2013-02-25 23:20:00,30.0,10.7,30.16,ESE,120,0.0,0.0,44,0.00,,,0.01,Wunderground v.1.15,2013-02-26 06:20:00,
2013-02-25 23:30:00,29.1,10.4,30.16,ESE,120,0.0,0.0,45,0.00,,,0.01,Wunderground v.1.15,2013-02-26 06:30:00,
2013-02-25 23:35:00,28.8,10.6,30.16,ESE,120,0.0,0.0,46,0.00,,,0.01,Wunderground v.1.15,2013-02-26 06:35:00,
2013-02-25 23:40:00,28.6,10.9,30.16,ESE,120,0.0,0.0,47,0.00,,,0.01,Wunderground v.1.15,2013-02-26 06:40:00,
2013-02-25 23:50:00,27.9,10.7,30.16,ESE,120,0.0,0.0,48,0.00,,,0.01,Wunderground v.1.15,2013-02-26 06:50:00,